Aérodrome :
LOGIN :

S'inscrire | Disclaimer

   EN    FR    IT 

 










Légende :    VFR   VFR Marginal   IFR   IFR Intensif   IFR Très Intensif
Visi : 
Plafond : 
>= 8 km
>= 3000ft
5 à 8 km
1000 à 3000 ft
1500m à 5 km
500 à 1000 ft
800 à 1500m
200 à 500 ft
< 800m
< 200 ft
Symboles :   Orages  Brouillard  Fortes neiges  Fortes précipitations  Vent > 20 kt
SIGMETs :   Divers  Orages  Givrage  Turbulence  Onde Orograph.  Cendres Volcan.






- Altitude de l'aérodrome : 13 ft
- Code IATA : SNR


LFRZ - St-Nazaire

DERNIER METAR :
  • 270830Z AUTO 27024G35KT 8000 -RA BKN010 OVC014 13/11 Q0999 BECMG 26025G45KT BKN018

METARs EXPIRÉS :
  • 270800Z AUTO 27024G40KT 9999 -RA OVC012 13/12 Q0999 BECMG BKN018
  • 270730Z AUTO 26024G40KT 9999 3000 -RA OVC011 13/12 Q0999 BECMG BKN018
  • 270700Z AUTO 26025G36KT 9000 OVC009 13/12 Q0999 BECMG BKN018
  • 270630Z AUTO 26022KT 7000 DZ OVC008 12/12 Q0999 BECMG 26025G45KT NSW BKN018
  • 270600Z AUTO 26026G37KT 7000 -RA OVC008 12/12 Q0999 BECMG BKN018

TAF TAF LFRZ
Valide du 27 à 06h jusqu'au 28 à 06h UTC


270500Z 2706/2806 24020KT 4000 -RA BKN004
BECMG 2706/2709 26025G45KT 9999 NSW BKN018
BECMG 2712/2714 32015G25KT SCT025
BECMG 2715/2718 33008KT
BECMG 2800/2803 17010KT
BECMG 2803/2806 4000 -RA BKN008



MET'MAP, la Météo Aéronautique d'un coup d'oeil ! - Copyright ORBIFLY Décembre 2007 - Disclaimer

ORBIFLY MET'MAP TEAM :

Programmation & Développement : Alexandra Zaïnal
Sur une idée originale de : Baudouin d'Aumeries
Assistance à la programmation : Marc-Olivier Méhu
Soutien technique & logistique : Manuel Goepfert

Contact : metmap@orbifly.com




SOURCES & CREDITS :

   NOAA